createdAt,value
2022-07-31T00:00:32.493Z,6.20
2022-07-31T00:03:18.905Z,5.90
2022-07-31T00:06:07.271Z,6.00
2022-07-31T00:08:55.077Z,5.90
2022-07-31T00:11:43.704Z,5.90
2022-07-31T00:14:30.522Z,6.03
2022-07-31T00:17:16.993Z,6.10
2022-07-31T00:20:03.402Z,6.83
2022-07-31T00:22:51.273Z,6.83
2022-07-31T00:25:38.124Z,6.47
2022-07-31T00:28:26.079Z,6.57
2022-07-31T00:31:12.532Z,6.63
2022-07-31T00:33:58.983Z,6.30
2022-07-31T00:36:45.317Z,7.13
2022-07-31T00:39:33.057Z,6.47
2022-07-31T00:42:20.378Z,6.60
2022-07-31T00:45:08.607Z,6.50
2022-07-31T00:47:55.991Z,6.83
2022-07-31T00:50:42.744Z,7.17
2022-07-31T00:53:29.144Z,6.97
2022-07-31T00:56:16.886Z,7.37
2022-07-31T00:59:04.690Z,7.30
2022-07-31T01:01:51.220Z,8.33
2022-07-31T01:04:37.783Z,8.13
2022-07-31T01:07:28.249Z,6.77
2022-07-31T01:10:18.715Z,6.97
2022-07-31T01:13:11.606Z,7.90
2022-07-31T01:15:59.487Z,7.80
2022-07-31T01:18:47.565Z,7.93
2022-07-31T01:21:36.792Z,7.43
2022-07-31T01:24:49.570Z,7.47
2022-07-31T01:27:53.267Z,7.77
2022-07-31T01:30:45.754Z,8.27
2022-07-31T01:33:37.993Z,8.60
2022-07-31T01:36:27.276Z,8.00
2022-07-31T01:39:14.101Z,7.47
2022-07-31T01:42:06.082Z,7.37
2022-07-31T01:44:57.511Z,7.33
2022-07-31T01:47:46.149Z,7.30
2022-07-31T01:50:43.969Z,7.47
2022-07-31T01:53:32.262Z,7.43
2022-07-31T01:56:19.804Z,7.90
2022-07-31T01:59:20.136Z,8.00
2022-07-31T02:02:09.934Z,7.90
2022-07-31T02:04:59.344Z,7.53
2022-07-31T02:07:47.149Z,8.70
2022-07-31T02:10:35.173Z,8.10
2022-07-31T02:13:23.485Z,8.03
2022-07-31T02:16:10.332Z,7.50
2022-07-31T02:18:58.142Z,7.23
2022-07-31T02:21:46.291Z,7.80
2022-07-31T02:24:33.254Z,7.30
2022-07-31T02:27:57.784Z,7.67
2022-07-31T02:30:39.261Z,8.67
2022-07-31T02:33:27.729Z,7.23
2022-07-31T02:36:15.468Z,8.50
2022-07-31T02:39:04.685Z,8.17
2022-07-31T02:41:51.231Z,7.70
2022-07-31T02:44:39.844Z,8.03
2022-07-31T02:47:26.494Z,7.53
2022-07-31T02:50:13.812Z,7.50
2022-07-31T02:53:04.953Z,7.53
2022-07-31T02:55:53.381Z,7.70
2022-07-31T02:58:41.941Z,7.80
2022-07-31T03:01:28.684Z,7.47
2022-07-31T03:04:15.641Z,7.43
2022-07-31T03:07:02.002Z,7.73
2022-07-31T03:09:49.626Z,7.53
2022-07-31T03:12:37.955Z,8.17
2022-07-31T03:15:27.715Z,7.10
2022-07-31T03:18:16.373Z,8.10
2022-07-31T03:21:03.031Z,7.47
2022-07-31T03:23:51.426Z,7.90
2022-07-31T03:26:37.918Z,9.03
2022-07-31T03:29:39.293Z,8.43
2022-07-31T03:32:30.601Z,8.77
2022-07-31T03:35:18.167Z,8.87
2022-07-31T03:38:39.091Z,8.67
2022-07-31T03:41:13.090Z,8.83
2022-07-31T03:44:00.045Z,9.30
2022-07-31T03:46:48.121Z,9.43
2022-07-31T03:49:35.681Z,9.63
2022-07-31T03:52:22.408Z,10.10
2022-07-31T03:55:09.913Z,9.33
2022-07-31T03:57:56.797Z,10.50
2022-07-31T04:00:45.237Z,9.83
2022-07-31T04:03:33.407Z,9.63
2022-07-31T04:06:19.816Z,10.07
2022-07-31T04:09:13.252Z,10.33
2022-07-31T04:12:06.260Z,11.00
2022-07-31T04:14:52.992Z,11.23
2022-07-31T04:17:39.239Z,11.63
2022-07-31T04:20:26.872Z,11.93
2022-07-31T04:23:13.325Z,11.10
2022-07-31T04:26:00.359Z,12.53
2022-07-31T04:28:46.743Z,12.00
2022-07-31T04:31:33.175Z,12.00
2022-07-31T04:34:19.535Z,11.20
2022-07-31T04:37:07.399Z,12.57
2022-07-31T04:39:54.151Z,12.93
2022-07-31T04:42:40.545Z,12.47
2022-07-31T04:45:26.875Z,12.13
2022-07-31T04:48:13.466Z,12.83
2022-07-31T04:50:59.867Z,11.67
2022-07-31T04:53:48.221Z,12.73
2022-07-31T04:56:36.060Z,13.67
2022-07-31T04:59:23.691Z,12.73
2022-07-31T05:02:30.429Z,12.73
2022-07-31T05:05:17.636Z,12.13
2022-07-31T05:08:04.064Z,12.20
2022-07-31T05:11:09.297Z,11.80
2022-07-31T05:13:57.213Z,12.67
2022-07-31T05:16:43.647Z,12.27
2022-07-31T05:19:30.768Z,12.57
2022-07-31T05:22:18.830Z,12.83
2022-07-31T05:25:06.323Z,13.60
2022-07-31T05:27:54.244Z,12.47
2022-07-31T05:30:41.535Z,11.97
2022-07-31T05:33:28.668Z,11.60
2022-07-31T05:36:15.953Z,10.50
2022-07-31T05:39:02.809Z,11.70
2022-07-31T05:41:51.366Z,11.80
2022-07-31T05:44:39.070Z,11.50
2022-07-31T05:47:25.389Z,10.87
2022-07-31T05:50:28.455Z,10.93
2022-07-31T05:53:16.004Z,10.40
2022-07-31T05:56:02.654Z,10.60
2022-07-31T05:58:49.121Z,9.47
2022-07-31T06:01:37.050Z,10.37
2022-07-31T06:04:24.375Z,10.83
2022-07-31T06:07:11.044Z,10.10
2022-07-31T06:09:58.409Z,10.00
2022-07-31T06:12:45.072Z,9.77
2022-07-31T06:15:36.051Z,9.37
2022-07-31T06:18:24.412Z,9.67
2022-07-31T06:23:57.679Z,8.60
2022-07-31T06:26:44.089Z,9.30
2022-07-31T06:29:41.688Z,8.73
2022-07-31T06:32:28.696Z,8.83
2022-07-31T06:35:16.456Z,8.07
2022-07-31T06:38:03.304Z,8.17
2022-07-31T06:40:49.643Z,8.40
2022-07-31T06:43:36.085Z,7.73
2022-07-31T06:46:22.692Z,7.90
2022-07-31T06:49:09.291Z,6.83
2022-07-31T06:51:57.219Z,6.77
2022-07-31T06:54:44.116Z,6.40
2022-07-31T06:57:30.483Z,6.20
2022-07-31T07:00:20.426Z,5.87
2022-07-31T07:03:07.776Z,5.43
2022-07-31T07:05:54.168Z,6.17
2022-07-31T07:08:41.929Z,5.10
2022-07-31T07:11:28.431Z,5.50
2022-07-31T07:14:14.893Z,4.63
2022-07-31T07:17:04.805Z,4.80
2022-07-31T07:19:54.687Z,5.10
2022-07-31T07:22:42.495Z,4.63
2022-07-31T07:25:30.182Z,4.20
2022-07-31T07:28:30.945Z,4.40
2022-07-31T07:31:17.875Z,4.13
2022-07-31T07:34:06.241Z,4.10
2022-07-31T07:36:52.941Z,4.00
2022-07-31T07:39:39.226Z,3.77
2022-07-31T07:42:27.053Z,4.00
2022-07-31T07:45:14.442Z,3.63
2022-07-31T07:48:06.603Z,3.80
2022-07-31T07:50:53.952Z,3.60
2022-07-31T07:53:40.468Z,4.23
2022-07-31T07:56:26.993Z,4.03
2022-07-31T07:59:15.111Z,3.50
2022-07-31T08:02:02.104Z,3.67
2022-07-31T08:04:49.633Z,3.17
2022-07-31T08:07:42.135Z,3.57
2022-07-31T08:10:29.488Z,3.23
2022-07-31T08:13:15.767Z,3.13
2022-07-31T08:16:03.642Z,3.13
2022-07-31T08:18:50.438Z,3.10
2022-07-31T08:21:37.467Z,3.17
2022-07-31T08:24:24.292Z,3.40
2022-07-31T08:27:39.938Z,2.97
2022-07-31T08:30:30.748Z,3.10
2022-07-31T08:33:19.111Z,2.97
2022-07-31T08:36:09.039Z,3.60
2022-07-31T08:38:55.759Z,2.80
2022-07-31T08:41:42.147Z,3.03
2022-07-31T08:44:31.180Z,3.23
2022-07-31T08:47:18.464Z,2.90
2022-07-31T08:50:07.454Z,2.90
2022-07-31T08:52:57.372Z,2.63
2022-07-31T08:55:56.654Z,3.03
2022-07-31T08:58:45.088Z,2.97
2022-07-31T09:01:33.944Z,2.90
2022-07-31T09:04:20.506Z,2.50
2022-07-31T09:07:11.976Z,3.20
2022-07-31T09:09:58.519Z,2.73
2022-07-31T09:12:45.000Z,2.77
2022-07-31T09:15:32.888Z,2.97
2022-07-31T09:18:20.035Z,3.00
2022-07-31T09:21:08.447Z,3.07
2022-07-31T09:23:56.468Z,3.10
2022-07-31T09:26:43.068Z,2.70
2022-07-31T09:29:38.207Z,2.93
2022-07-31T09:32:25.151Z,3.27
2022-07-31T09:35:14.365Z,2.57
2022-07-31T09:38:01.087Z,2.90
2022-07-31T09:40:56.954Z,3.17
2022-07-31T09:43:51.635Z,2.60
2022-07-31T09:46:42.769Z,2.37
2022-07-31T09:49:33.426Z,2.53
2022-07-31T09:52:20.707Z,2.60
2022-07-31T09:55:16.294Z,2.63
2022-07-31T09:58:04.816Z,2.23
2022-07-31T10:00:53.629Z,2.40
2022-07-31T10:03:41.593Z,2.40
2022-07-31T10:06:29.226Z,2.73
2022-07-31T10:09:18.316Z,2.57
2022-07-31T10:12:06.018Z,2.30
2022-07-31T10:14:56.939Z,2.50
2022-07-31T10:17:46.596Z,2.30
2022-07-31T10:20:35.447Z,2.23
2022-07-31T10:23:25.349Z,2.63
2022-07-31T10:26:11.968Z,2.50
2022-07-31T10:28:59.416Z,2.33
2022-07-31T10:31:47.999Z,2.73
2022-07-31T10:34:35.596Z,2.47
2022-07-31T10:37:26.848Z,2.60
2022-07-31T10:40:25.093Z,2.10
2022-07-31T10:43:20.288Z,2.87
2022-07-31T10:46:07.275Z,2.77
2022-07-31T10:48:55.295Z,2.67
2022-07-31T10:51:48.233Z,2.80
2022-07-31T10:54:43.470Z,2.40
2022-07-31T10:57:33.279Z,2.70
2022-07-31T11:00:22.792Z,2.70
2022-07-31T11:03:16.707Z,2.93
2022-07-31T11:06:04.750Z,2.67
2022-07-31T11:08:53.715Z,2.87
2022-07-31T11:11:40.024Z,3.10
2022-07-31T11:14:38.841Z,2.97
2022-07-31T11:18:21.193Z,2.73
2022-07-31T11:20:40.109Z,2.30
2022-07-31T11:23:32.146Z,2.63
2022-07-31T11:26:18.879Z,2.57
2022-07-31T11:29:59.965Z,2.70
2022-07-31T11:32:39.082Z,2.40
2022-07-31T11:35:27.764Z,2.80
2022-07-31T11:38:14.228Z,2.50
2022-07-31T11:41:04.809Z,2.50
2022-07-31T11:43:54.425Z,2.60
2022-07-31T11:46:41.119Z,2.30
2022-07-31T11:49:47.819Z,2.47
2022-07-31T11:52:36.977Z,2.17
2022-07-31T11:55:24.159Z,2.13
2022-07-31T11:58:12.685Z,2.30
2022-07-31T12:01:00.548Z,2.30
2022-07-31T12:03:51.288Z,2.20
2022-07-31T12:06:38.306Z,2.10
2022-07-31T12:10:01.423Z,2.47
2022-07-31T12:12:32.414Z,2.70
2022-07-31T12:15:22.636Z,2.50
2022-07-31T12:18:09.405Z,2.50
2022-07-31T12:20:57.660Z,2.40
2022-07-31T12:23:46.386Z,2.50
2022-07-31T12:26:34.577Z,2.93
2022-07-31T12:29:30.480Z,2.67
2022-07-31T12:32:27.158Z,2.87
2022-07-31T12:35:13.891Z,2.93
2022-07-31T12:38:00.483Z,3.60
2022-07-31T12:40:48.378Z,2.83
2022-07-31T12:43:34.945Z,3.20
2022-07-31T12:46:22.923Z,3.13
2022-07-31T12:49:11.246Z,3.03
2022-07-31T12:51:58.233Z,3.33
2022-07-31T12:54:45.401Z,3.53
2022-07-31T12:57:32.016Z,3.17
2022-07-31T13:00:19.225Z,3.10
2022-07-31T13:03:05.780Z,3.33
2022-07-31T13:05:53.706Z,3.10
2022-07-31T13:08:40.414Z,3.27
2022-07-31T13:11:28.955Z,3.40
2022-07-31T13:14:15.933Z,3.93
2022-07-31T13:17:02.687Z,3.43
2022-07-31T13:19:50.300Z,3.67
2022-07-31T13:22:38.240Z,3.87
2022-07-31T13:25:24.939Z,3.47
2022-07-31T13:28:11.484Z,3.70
2022-07-31T13:30:57.797Z,3.47
2022-07-31T13:33:44.175Z,3.47
2022-07-31T13:36:35.636Z,3.50
2022-07-31T13:39:26.432Z,3.30
2022-07-31T13:42:12.855Z,3.33
2022-07-31T13:45:08.012Z,3.23
2022-07-31T13:47:59.657Z,2.47
2022-07-31T13:50:46.785Z,3.00
2022-07-31T13:53:33.833Z,2.57
2022-07-31T13:56:39.222Z,2.50
2022-07-31T13:59:29.304Z,2.57
2022-07-31T14:02:16.107Z,2.40
2022-07-31T14:05:02.697Z,2.60
2022-07-31T14:07:51.972Z,2.03
2022-07-31T14:10:39.678Z,2.10
2022-07-31T14:13:30.017Z,2.20
2022-07-31T14:16:16.574Z,2.63
2022-07-31T14:19:03.025Z,2.10
2022-07-31T14:21:50.136Z,2.03
2022-07-31T14:24:51.068Z,2.40
2022-07-31T14:27:38.701Z,2.40
2022-07-31T14:30:27.924Z,2.77
2022-07-31T14:33:17.033Z,3.00
2022-07-31T14:36:03.848Z,2.57
2022-07-31T14:38:50.578Z,2.73
2022-07-31T14:41:37.134Z,2.70
2022-07-31T14:44:28.468Z,2.57
2022-07-31T14:47:17.810Z,2.70
2022-07-31T14:50:07.952Z,2.83
2022-07-31T14:52:57.052Z,2.00
2022-07-31T14:55:43.513Z,2.10
2022-07-31T14:58:29.924Z,1.93
2022-07-31T15:01:16.450Z,1.70
2022-07-31T15:04:04.488Z,2.20
2022-07-31T15:07:03.109Z,1.90
2022-07-31T15:09:57.940Z,2.30
2022-07-31T15:12:44.289Z,2.40
2022-07-31T15:15:31.020Z,2.37
2022-07-31T15:18:20.762Z,3.13
2022-07-31T15:21:16.032Z,3.20
2022-07-31T15:24:02.675Z,3.87
2022-07-31T15:26:49.021Z,3.60
2022-07-31T15:30:05.485Z,3.80
2022-07-31T15:32:42.534Z,3.67
2022-07-31T15:35:29.167Z,4.10
2022-07-31T15:38:17.036Z,4.50
2022-07-31T15:41:03.699Z,5.00
2022-07-31T15:43:50.045Z,4.37
2022-07-31T15:46:36.367Z,4.50
2022-07-31T15:49:22.964Z,4.90
2022-07-31T15:52:18.894Z,4.80
2022-07-31T15:55:09.420Z,4.47
2022-07-31T15:57:55.789Z,5.20
2022-07-31T16:00:42.307Z,5.37
2022-07-31T16:03:50.669Z,5.10
2022-07-31T16:06:36.171Z,5.07
2022-07-31T16:09:24.064Z,5.00
2022-07-31T16:12:12.166Z,5.47
2022-07-31T16:14:58.754Z,5.40
2022-07-31T16:17:45.585Z,5.93
2022-07-31T16:20:32.103Z,5.90
2022-07-31T16:23:18.497Z,5.50
2022-07-31T16:26:05.089Z,5.20
2022-07-31T16:28:54.340Z,5.33
2022-07-31T16:31:41.783Z,5.53
2022-07-31T16:34:28.433Z,5.47
2022-07-31T16:37:14.997Z,5.23
2022-07-31T16:40:01.433Z,5.40
2022-07-31T16:42:53.134Z,5.10
2022-07-31T16:45:41.309Z,5.53
2022-07-31T16:48:28.064Z,5.23
2022-07-31T16:51:14.403Z,5.00
2022-07-31T16:54:12.692Z,5.40
2022-07-31T16:57:03.287Z,6.10
2022-07-31T16:59:57.912Z,5.60
2022-07-31T17:02:46.416Z,5.47
2022-07-31T17:05:32.945Z,5.03
2022-07-31T17:08:20.075Z,5.13
2022-07-31T17:11:07.005Z,5.33
2022-07-31T17:13:53.580Z,5.13
2022-07-31T17:16:44.867Z,5.27
2022-07-31T17:19:36.260Z,4.73
2022-07-31T17:22:29.592Z,4.77
2022-07-31T17:25:17.229Z,5.00
2022-07-31T17:28:03.977Z,4.80
2022-07-31T17:30:50.355Z,4.33
2022-07-31T17:33:59.058Z,4.10
2022-07-31T17:36:44.601Z,5.47
2022-07-31T17:39:31.516Z,4.83
2022-07-31T17:42:18.301Z,4.23
2022-07-31T17:45:11.059Z,4.37
2022-07-31T17:48:03.400Z,4.50
2022-07-31T17:50:54.107Z,4.33
2022-07-31T17:53:55.199Z,4.23
2022-07-31T17:56:46.224Z,4.70
2022-07-31T17:59:38.670Z,4.87
2022-07-31T18:02:25.288Z,4.90
2022-07-31T18:05:12.133Z,5.00
2022-07-31T18:07:58.793Z,4.37
2022-07-31T18:10:54.472Z,4.73
2022-07-31T18:13:48.338Z,4.40
2022-07-31T18:16:37.942Z,5.03
2022-07-31T18:19:24.523Z,4.47
2022-07-31T18:22:11.270Z,4.27
2022-07-31T18:24:57.737Z,5.03
2022-07-31T18:27:45.660Z,5.17
2022-07-31T18:30:34.797Z,5.40
2022-07-31T18:33:25.248Z,4.80
2022-07-31T18:36:12.260Z,4.93
2022-07-31T18:38:59.933Z,5.00
2022-07-31T18:41:48.929Z,6.27
2022-07-31T18:44:37.251Z,5.10
2022-07-31T18:47:23.901Z,5.70
2022-07-31T18:50:58.184Z,5.80
2022-07-31T18:53:17.802Z,6.23
2022-07-31T18:56:06.317Z,5.50
2022-07-31T18:58:53.069Z,6.03
2022-07-31T19:01:41.169Z,5.73
2022-07-31T19:04:29.246Z,5.60
2022-07-31T19:07:15.998Z,6.87
2022-07-31T19:10:02.481Z,6.23
2022-07-31T19:12:48.980Z,6.13
2022-07-31T19:15:36.329Z,5.90
2022-07-31T19:18:28.033Z,5.40
2022-07-31T19:21:23.541Z,6.00
2022-07-31T19:24:22.329Z,5.90
2022-07-31T19:27:08.942Z,6.07
2022-07-31T19:29:55.704Z,6.33
2022-07-31T19:32:42.440Z,6.20
2022-07-31T19:35:30.124Z,6.40
2022-07-31T19:38:16.683Z,6.40
2022-07-31T19:41:03.099Z,6.60
2022-07-31T19:43:49.970Z,6.33
2022-07-31T19:46:36.937Z,6.60
2022-07-31T19:49:23.397Z,5.50
2022-07-31T19:52:11.495Z,5.37
2022-07-31T19:54:58.164Z,5.40
2022-07-31T19:57:44.872Z,4.90
2022-07-31T20:00:32.596Z,4.70
2022-07-31T20:03:19.047Z,4.50
2022-07-31T20:06:06.792Z,4.70
2022-07-31T20:08:54.508Z,4.30
2022-07-31T20:11:41.165Z,3.97
2022-07-31T20:14:27.601Z,4.00
2022-07-31T20:17:13.905Z,3.60
2022-07-31T20:20:14.525Z,3.43
2022-07-31T20:23:02.489Z,3.10
2022-07-31T20:25:50.233Z,3.57
2022-07-31T20:28:37.457Z,3.03
2022-07-31T20:31:23.811Z,3.50
2022-07-31T20:34:10.150Z,3.87
2022-07-31T20:36:58.668Z,3.37
2022-07-31T20:39:46.071Z,3.57
2022-07-31T20:42:34.387Z,4.00
2022-07-31T20:45:20.616Z,3.90
2022-07-31T20:48:07.735Z,3.90
2022-07-31T20:50:54.296Z,4.30
2022-07-31T20:53:40.965Z,4.00
2022-07-31T20:56:27.276Z,4.07
2022-07-31T20:59:15.480Z,3.90
2022-07-31T21:02:03.678Z,4.57
2022-07-31T21:04:50.313Z,4.50
2022-07-31T21:07:36.646Z,4.30
2022-07-31T21:10:23.991Z,4.20
2022-07-31T21:13:10.915Z,4.60
2022-07-31T21:15:58.901Z,3.80
2022-07-31T21:18:47.209Z,4.17
2022-07-31T21:21:33.659Z,3.30
2022-07-31T21:24:20.588Z,4.03
2022-07-31T21:27:15.711Z,4.13
2022-07-31T21:30:02.973Z,4.07
2022-07-31T21:32:51.249Z,3.70
2022-07-31T21:35:40.048Z,3.47
2022-07-31T21:38:27.328Z,3.77
2022-07-31T21:41:14.331Z,3.80
2022-07-31T21:44:01.430Z,3.33
2022-07-31T21:46:51.796Z,3.67
2022-07-31T21:49:40.966Z,3.40
2022-07-31T21:52:29.973Z,3.87
2022-07-31T21:55:16.811Z,3.27
2022-07-31T21:58:03.230Z,3.80
2022-07-31T22:00:49.754Z,3.80
2022-07-31T22:03:36.651Z,3.87
2022-07-31T22:06:42.029Z,3.53
2022-07-31T22:09:28.657Z,3.73
2022-07-31T22:12:15.425Z,3.53
2022-07-31T22:15:02.016Z,3.97
2022-07-31T22:17:48.848Z,4.30
2022-07-31T22:20:36.059Z,3.47
2022-07-31T22:23:24.677Z,4.40
2022-07-31T22:26:11.447Z,4.27
2022-07-31T22:28:58.272Z,3.93
2022-07-31T22:31:49.705Z,3.87
2022-07-31T22:34:38.609Z,4.17
2022-07-31T22:37:26.879Z,3.83
2022-07-31T22:40:16.725Z,4.10
2022-07-31T22:43:03.514Z,4.23
2022-07-31T22:45:50.685Z,4.30
2022-07-31T22:48:38.702Z,4.13
2022-07-31T22:51:25.591Z,4.43
2022-07-31T22:54:11.932Z,3.93
2022-07-31T22:56:59.761Z,4.07
2022-07-31T22:59:46.790Z,4.20
2022-07-31T23:02:33.236Z,4.53
2022-07-31T23:05:21.216Z,4.40
2022-07-31T23:08:07.853Z,4.07
2022-07-31T23:10:54.462Z,4.40
2022-07-31T23:13:42.199Z,4.90
2022-07-31T23:16:29.780Z,5.10
2022-07-31T23:19:16.293Z,5.20
2022-07-31T23:22:02.885Z,5.17
2022-07-31T23:24:49.533Z,4.83
2022-07-31T23:27:36.195Z,4.33
2022-07-31T23:30:27.454Z,4.40
2022-07-31T23:33:16.437Z,4.37
2022-07-31T23:36:03.537Z,4.47
2022-07-31T23:38:50.097Z,3.97
2022-07-31T23:41:54.133Z,4.43
2022-07-31T23:44:41.066Z,4.47
2022-07-31T23:47:44.553Z,4.57
2022-07-31T23:50:32.312Z,4.17
2022-07-31T23:53:18.639Z,4.10
2022-07-31T23:56:05.304Z,4.53
2022-07-31T23:59:05.239Z,4.37
